sensor_id;sensor_type;location;lat;lon;timestamp;P1;durP1;ratioP1;P2;durP2;ratioP2
43124;SDS011;49182;50.788;7.318;2023-02-02T00:01:52;16.05;;;4.65;;
43124;SDS011;49182;50.788;7.318;2023-02-02T00:04:20;17.48;;;4.78;;
43124;SDS011;49182;50.788;7.318;2023-02-02T00:06:48;12.75;;;3.72;;
43124;SDS011;49182;50.788;7.318;2023-02-02T00:09:15;13.05;;;4.53;;
43124;SDS011;49182;50.788;7.318;2023-02-02T00:11:46;14.07;;;4.25;;
43124;SDS011;49182;50.788;7.318;2023-02-02T00:14:14;15.20;;;4.85;;
43124;SDS011;49182;50.788;7.318;2023-02-02T00:16:41;16.20;;;4.13;;
43124;SDS011;49182;50.788;7.318;2023-02-02T00:19:11;18.67;;;4.57;;
43124;SDS011;49182;50.788;7.318;2023-02-02T00:21:39;16.08;;;4.45;;
43124;SDS011;49182;50.788;7.318;2023-02-02T00:24:06;18.42;;;4.70;;
43124;SDS011;49182;50.788;7.318;2023-02-02T00:26:34;19.98;;;4.90;;
43124;SDS011;49182;50.788;7.318;2023-02-02T00:29:03;18.40;;;4.20;;
43124;SDS011;49182;50.788;7.318;2023-02-02T00:31:31;18.23;;;4.43;;
43124;SDS011;49182;50.788;7.318;2023-02-02T00:33:58;14.20;;;4.03;;
43124;SDS011;49182;50.788;7.318;2023-02-02T00:36:27;12.80;;;4.13;;
43124;SDS011;49182;50.788;7.318;2023-02-02T00:38:53;16.48;;;4.22;;
43124;SDS011;49182;50.788;7.318;2023-02-02T00:41:20;16.23;;;4.80;;
43124;SDS011;49182;50.788;7.318;2023-02-02T00:43:47;20.75;;;4.80;;
43124;SDS011;49182;50.788;7.318;2023-02-02T00:46:16;15.27;;;4.15;;
43124;SDS011;49182;50.788;7.318;2023-02-02T00:48:44;12.77;;;4.03;;
43124;SDS011;49182;50.788;7.318;2023-02-02T00:51:11;26.92;;;6.13;;
43124;SDS011;49182;50.788;7.318;2023-02-02T00:53:37;19.92;;;4.85;;
43124;SDS011;49182;50.788;7.318;2023-02-02T00:56:04;16.52;;;4.90;;
43124;SDS011;49182;50.788;7.318;2023-02-02T00:58:31;11.32;;;3.80;;
43124;SDS011;49182;50.788;7.318;2023-02-02T01:00:57;14.15;;;4.32;;
43124;SDS011;49182;50.788;7.318;2023-02-02T01:03:25;13.40;;;3.65;;
43124;SDS011;49182;50.788;7.318;2023-02-02T01:05:52;17.60;;;4.22;;
43124;SDS011;49182;50.788;7.318;2023-02-02T01:08:18;16.02;;;4.45;;
43124;SDS011;49182;50.788;7.318;2023-02-02T01:10:45;26.00;;;4.85;;
43124;SDS011;49182;50.788;7.318;2023-02-02T01:13:13;16.70;;;5.07;;
43124;SDS011;49182;50.788;7.318;2023-02-02T01:15:41;19.35;;;5.18;;
43124;SDS011;49182;50.788;7.318;2023-02-02T01:18:09;16.77;;;4.10;;
43124;SDS011;49182;50.788;7.318;2023-02-02T01:20:37;16.58;;;4.30;;
43124;SDS011;49182;50.788;7.318;2023-02-02T01:23:03;18.00;;;4.10;;
43124;SDS011;49182;50.788;7.318;2023-02-02T01:25:30;16.13;;;4.53;;
43124;SDS011;49182;50.788;7.318;2023-02-02T01:27:56;16.25;;;4.28;;
43124;SDS011;49182;50.788;7.318;2023-02-02T01:30:23;18.60;;;4.25;;
43124;SDS011;49182;50.788;7.318;2023-02-02T01:32:49;16.00;;;3.72;;
43124;SDS011;49182;50.788;7.318;2023-02-02T01:35:16;15.50;;;4.00;;
43124;SDS011;49182;50.788;7.318;2023-02-02T01:37:44;19.67;;;5.40;;
43124;SDS011;49182;50.788;7.318;2023-02-02T01:40:11;17.15;;;5.00;;
43124;SDS011;49182;50.788;7.318;2023-02-02T01:42:38;18.02;;;6.00;;
43124;SDS011;49182;50.788;7.318;2023-02-02T01:47:50;21.80;;;5.47;;
43124;SDS011;49182;50.788;7.318;2023-02-02T01:50:20;15.02;;;4.93;;
43124;SDS011;49182;50.788;7.318;2023-02-02T01:52:51;20.48;;;4.20;;
43124;SDS011;49182;50.788;7.318;2023-02-02T01:55:21;23.57;;;4.20;;
43124;SDS011;49182;50.788;7.318;2023-02-02T01:57:52;14.48;;;3.95;;
43124;SDS011;49182;50.788;7.318;2023-02-02T02:00:23;13.50;;;4.55;;
43124;SDS011;49182;50.788;7.318;2023-02-02T02:02:51;18.45;;;4.75;;
43124;SDS011;49182;50.788;7.318;2023-02-02T02:05:22;15.48;;;3.83;;
43124;SDS011;49182;50.788;7.318;2023-02-02T02:07:55;14.82;;;4.43;;
43124;SDS011;49182;50.788;7.318;2023-02-02T02:10:28;17.25;;;4.63;;
43124;SDS011;49182;50.788;7.318;2023-02-02T02:12:57;16.13;;;4.75;;
43124;SDS011;49182;50.788;7.318;2023-02-02T02:15:24;15.07;;;5.05;;
43124;SDS011;49182;50.788;7.318;2023-02-02T02:17:56;15.23;;;4.80;;
43124;SDS011;49182;50.788;7.318;2023-02-02T02:20:43;16.40;;;4.47;;
43124;SDS011;49182;50.788;7.318;2023-02-02T02:26:39;19.80;;;4.63;;
43124;SDS011;49182;50.788;7.318;2023-02-02T02:29:21;14.70;;;4.60;;
43124;SDS011;49182;50.788;7.318;2023-02-02T02:32:09;12.90;;;4.63;;
43124;SDS011;49182;50.788;7.318;2023-02-02T02:34:50;19.00;;;5.55;;
43124;SDS011;49182;50.788;7.318;2023-02-02T02:37:28;17.02;;;4.82;;
43124;SDS011;49182;50.788;7.318;2023-02-02T02:40:04;15.07;;;4.03;;
43124;SDS011;49182;50.788;7.318;2023-02-02T02:42:37;13.60;;;4.07;;
43124;SDS011;49182;50.788;7.318;2023-02-02T02:45:08;16.48;;;5.55;;
43124;SDS011;49182;50.788;7.318;2023-02-02T02:47:39;17.40;;;4.20;;
43124;SDS011;49182;50.788;7.318;2023-02-02T02:50:07;19.23;;;5.18;;
43124;SDS011;49182;50.788;7.318;2023-02-02T02:52:35;17.95;;;4.68;;
43124;SDS011;49182;50.788;7.318;2023-02-02T02:55:03;14.73;;;4.05;;
43124;SDS011;49182;50.788;7.318;2023-02-02T02:57:37;14.95;;;4.70;;
43124;SDS011;49182;50.788;7.318;2023-02-02T03:00:23;12.05;;;4.72;;
43124;SDS011;49182;50.788;7.318;2023-02-02T03:03:04;9.80;;;3.83;;
43124;SDS011;49182;50.788;7.318;2023-02-02T03:05:41;18.75;;;5.28;;
43124;SDS011;49182;50.788;7.318;2023-02-02T03:08:16;12.65;;;3.90;;
43124;SDS011;49182;50.788;7.318;2023-02-02T03:10:49;16.65;;;3.90;;
43124;SDS011;49182;50.788;7.318;2023-02-02T03:13:17;15.07;;;4.55;;
43124;SDS011;49182;50.788;7.318;2023-02-02T03:15:44;14.90;;;4.93;;
43124;SDS011;49182;50.788;7.318;2023-02-02T03:18:13;16.35;;;3.67;;
43124;SDS011;49182;50.788;7.318;2023-02-02T03:20:42;26.25;;;5.30;;
43124;SDS011;49182;50.788;7.318;2023-02-02T03:23:10;25.00;;;5.47;;
43124;SDS011;49182;50.788;7.318;2023-02-02T03:25:37;19.92;;;4.22;;
43124;SDS011;49182;50.788;7.318;2023-02-02T03:28:04;17.42;;;3.85;;
43124;SDS011;49182;50.788;7.318;2023-02-02T03:30:31;10.98;;;4.43;;
43124;SDS011;49182;50.788;7.318;2023-02-02T03:32:58;17.88;;;4.57;;
43124;SDS011;49182;50.788;7.318;2023-02-02T03:35:27;20.75;;;5.15;;
43124;SDS011;49182;50.788;7.318;2023-02-02T03:37:54;20.58;;;6.70;;
43124;SDS011;49182;50.788;7.318;2023-02-02T03:40:20;19.08;;;6.40;;
43124;SDS011;49182;50.788;7.318;2023-02-02T03:42:47;13.73;;;4.43;;
43124;SDS011;49182;50.788;7.318;2023-02-02T03:45:14;9.73;;;4.72;;
43124;SDS011;49182;50.788;7.318;2023-02-02T03:47:41;12.65;;;5.40;;
43124;SDS011;49182;50.788;7.318;2023-02-02T03:50:08;18.23;;;5.13;;
43124;SDS011;49182;50.788;7.318;2023-02-02T03:52:36;12.48;;;5.70;;
43124;SDS011;49182;50.788;7.318;2023-02-02T03:55:03;12.32;;;5.78;;
43124;SDS011;49182;50.788;7.318;2023-02-02T03:57:31;17.05;;;5.30;;
43124;SDS011;49182;50.788;7.318;2023-02-02T03:59:58;16.05;;;4.90;;
43124;SDS011;49182;50.788;7.318;2023-02-02T04:02:24;15.05;;;5.10;;
43124;SDS011;49182;50.788;7.318;2023-02-02T04:04:51;21.02;;;6.53;;
43124;SDS011;49182;50.788;7.318;2023-02-02T04:07:18;16.20;;;5.75;;
43124;SDS011;49182;50.788;7.318;2023-02-02T04:09:46;17.17;;;5.55;;
43124;SDS011;49182;50.788;7.318;2023-02-02T04:12:12;18.05;;;5.78;;
43124;SDS011;49182;50.788;7.318;2023-02-02T04:14:39;22.58;;;5.65;;
43124;SDS011;49182;50.788;7.318;2023-02-02T04:17:05;21.85;;;5.47;;
43124;SDS011;49182;50.788;7.318;2023-02-02T04:19:32;16.77;;;5.70;;
43124;SDS011;49182;50.788;7.318;2023-02-02T04:21:59;19.55;;;6.10;;
43124;SDS011;49182;50.788;7.318;2023-02-02T04:24:25;17.63;;;5.93;;
43124;SDS011;49182;50.788;7.318;2023-02-02T04:26:53;41.30;;;6.47;;
43124;SDS011;49182;50.788;7.318;2023-02-02T04:29:20;17.77;;;6.13;;
43124;SDS011;49182;50.788;7.318;2023-02-02T04:31:46;21.98;;;5.35;;
43124;SDS011;49182;50.788;7.318;2023-02-02T04:34:13;21.13;;;5.30;;
43124;SDS011;49182;50.788;7.318;2023-02-02T04:36:40;16.33;;;5.40;;
43124;SDS011;49182;50.788;7.318;2023-02-02T04:39:08;20.35;;;5.70;;
43124;SDS011;49182;50.788;7.318;2023-02-02T04:41:36;20.88;;;5.32;;
43124;SDS011;49182;50.788;7.318;2023-02-02T04:44:04;17.00;;;5.50;;
43124;SDS011;49182;50.788;7.318;2023-02-02T04:46:31;22.17;;;5.43;;
43124;SDS011;49182;50.788;7.318;2023-02-02T04:48:57;16.95;;;5.32;;
43124;SDS011;49182;50.788;7.318;2023-02-02T04:51:24;22.30;;;5.82;;
43124;SDS011;49182;50.788;7.318;2023-02-02T04:53:50;18.85;;;5.68;;
43124;SDS011;49182;50.788;7.318;2023-02-02T04:56:17;19.27;;;5.47;;
43124;SDS011;49182;50.788;7.318;2023-02-02T04:58:44;26.35;;;9.65;;
43124;SDS011;49182;50.788;7.318;2023-02-02T05:01:14;20.38;;;5.97;;
43124;SDS011;49182;50.788;7.318;2023-02-02T05:03:42;28.43;;;5.50;;
43124;SDS011;49182;50.788;7.318;2023-02-02T05:06:10;20.88;;;6.45;;
43124;SDS011;49182;50.788;7.318;2023-02-02T05:08:40;17.63;;;5.60;;
43124;SDS011;49182;50.788;7.318;2023-02-02T05:11:06;19.08;;;5.40;;
43124;SDS011;49182;50.788;7.318;2023-02-02T05:13:34;14.57;;;4.80;;
43124;SDS011;49182;50.788;7.318;2023-02-02T05:16:00;19.92;;;6.07;;
43124;SDS011;49182;50.788;7.318;2023-02-02T05:18:29;15.77;;;5.68;;
43124;SDS011;49182;50.788;7.318;2023-02-02T05:20:57;19.25;;;5.50;;
43124;SDS011;49182;50.788;7.318;2023-02-02T05:23:24;20.42;;;7.03;;
43124;SDS011;49182;50.788;7.318;2023-02-02T05:25:51;25.70;;;7.43;;
43124;SDS011;49182;50.788;7.318;2023-02-02T05:28:19;20.63;;;5.28;;
43124;SDS011;49182;50.788;7.318;2023-02-02T05:30:46;17.88;;;5.20;;
43124;SDS011;49182;50.788;7.318;2023-02-02T05:33:13;28.00;;;5.85;;
43124;SDS011;49182;50.788;7.318;2023-02-02T05:35:41;20.73;;;6.07;;
43124;SDS011;49182;50.788;7.318;2023-02-02T05:38:10;25.75;;;6.10;;
43124;SDS011;49182;50.788;7.318;2023-02-02T05:40:36;30.38;;;8.40;;
43124;SDS011;49182;50.788;7.318;2023-02-02T05:43:03;20.20;;;5.65;;
43124;SDS011;49182;50.788;7.318;2023-02-02T05:45:30;19.45;;;5.72;;
43124;SDS011;49182;50.788;7.318;2023-02-02T05:47:57;20.77;;;6.15;;
43124;SDS011;49182;50.788;7.318;2023-02-02T05:50:24;19.38;;;5.95;;
43124;SDS011;49182;50.788;7.318;2023-02-02T05:53:01;19.42;;;6.43;;
43124;SDS011;49182;50.788;7.318;2023-02-02T05:55:28;29.45;;;10.82;;
43124;SDS011;49182;50.788;7.318;2023-02-02T05:57:55;17.98;;;5.95;;
43124;SDS011;49182;50.788;7.318;2023-02-02T06:00:21;18.85;;;6.22;;
43124;SDS011;49182;50.788;7.318;2023-02-02T06:02:48;15.93;;;5.40;;
43124;SDS011;49182;50.788;7.318;2023-02-02T06:05:15;20.30;;;6.47;;
43124;SDS011;49182;50.788;7.318;2023-02-02T06:07:41;17.08;;;5.90;;
43124;SDS011;49182;50.788;7.318;2023-02-02T06:10:10;18.77;;;6.30;;
43124;SDS011;49182;50.788;7.318;2023-02-02T06:12:36;17.30;;;6.47;;
43124;SDS011;49182;50.788;7.318;2023-02-02T06:15:03;21.73;;;5.72;;
43124;SDS011;49182;50.788;7.318;2023-02-02T06:17:31;18.83;;;6.85;;
43124;SDS011;49182;50.788;7.318;2023-02-02T06:19:57;17.38;;;5.93;;
43124;SDS011;49182;50.788;7.318;2023-02-02T06:22:24;19.63;;;6.78;;
43124;SDS011;49182;50.788;7.318;2023-02-02T06:24:50;19.27;;;5.65;;
43124;SDS011;49182;50.788;7.318;2023-02-02T06:27:19;25.73;;;7.75;;
43124;SDS011;49182;50.788;7.318;2023-02-02T06:29:45;16.15;;;5.97;;
43124;SDS011;49182;50.788;7.318;2023-02-02T06:32:12;18.38;;;6.43;;
43124;SDS011;49182;50.788;7.318;2023-02-02T06:34:38;16.50;;;5.63;;
43124;SDS011;49182;50.788;7.318;2023-02-02T06:37:05;20.88;;;6.28;;
43124;SDS011;49182;50.788;7.318;2023-02-02T06:39:32;18.17;;;6.70;;
43124;SDS011;49182;50.788;7.318;2023-02-02T06:41:58;18.70;;;6.43;;
43124;SDS011;49182;50.788;7.318;2023-02-02T06:44:42;17.42;;;5.50;;
43124;SDS011;49182;50.788;7.318;2023-02-02T06:47:09;18.55;;;5.85;;
43124;SDS011;49182;50.788;7.318;2023-02-02T06:49:36;14.20;;;5.78;;
43124;SDS011;49182;50.788;7.318;2023-02-02T06:52:02;16.23;;;6.18;;
43124;SDS011;49182;50.788;7.318;2023-02-02T06:54:29;19.75;;;6.65;;
43124;SDS011;49182;50.788;7.318;2023-02-02T06:56:56;16.58;;;6.13;;
43124;SDS011;49182;50.788;7.318;2023-02-02T06:59:22;17.63;;;6.05;;
43124;SDS011;49182;50.788;7.318;2023-02-02T07:01:50;18.27;;;5.65;;
43124;SDS011;49182;50.788;7.318;2023-02-02T07:04:17;15.23;;;6.60;;
43124;SDS011;49182;50.788;7.318;2023-02-02T07:06:44;16.15;;;5.55;;
43124;SDS011;49182;50.788;7.318;2023-02-02T07:09:11;14.07;;;5.40;;
43124;SDS011;49182;50.788;7.318;2023-02-02T07:11:37;16.48;;;6.60;;
43124;SDS011;49182;50.788;7.318;2023-02-02T07:14:10;14.40;;;5.13;;
43124;SDS011;49182;50.788;7.318;2023-02-02T07:16:37;16.88;;;5.45;;
43124;SDS011;49182;50.788;7.318;2023-02-02T07:19:05;18.23;;;5.45;;
43124;SDS011;49182;50.788;7.318;2023-02-02T07:21:32;14.10;;;5.05;;
43124;SDS011;49182;50.788;7.318;2023-02-02T07:23:58;16.00;;;5.85;;
43124;SDS011;49182;50.788;7.318;2023-02-02T07:26:25;13.88;;;5.70;;
43124;SDS011;49182;50.788;7.318;2023-02-02T07:28:51;17.27;;;6.70;;
43124;SDS011;49182;50.788;7.318;2023-02-02T07:31:19;15.60;;;5.78;;
43124;SDS011;49182;50.788;7.318;2023-02-02T07:33:47;13.52;;;5.40;;
43124;SDS011;49182;50.788;7.318;2023-02-02T07:36:15;14.13;;;5.43;;
43124;SDS011;49182;50.788;7.318;2023-02-02T07:38:44;13.48;;;5.45;;
43124;SDS011;49182;50.788;7.318;2023-02-02T07:41:11;17.05;;;5.50;;
43124;SDS011;49182;50.788;7.318;2023-02-02T07:43:38;15.48;;;5.55;;
43124;SDS011;49182;50.788;7.318;2023-02-02T07:46:05;19.67;;;5.88;;
43124;SDS011;49182;50.788;7.318;2023-02-02T07:48:33;17.38;;;5.65;;
43124;SDS011;49182;50.788;7.318;2023-02-02T07:51:00;13.85;;;5.60;;
43124;SDS011;49182;50.788;7.318;2023-02-02T07:53:29;15.85;;;5.70;;
43124;SDS011;49182;50.788;7.318;2023-02-02T07:56:04;13.65;;;5.43;;
43124;SDS011;49182;50.788;7.318;2023-02-02T07:58:32;18.02;;;6.22;;
43124;SDS011;49182;50.788;7.318;2023-02-02T08:00:59;16.27;;;5.82;;
43124;SDS011;49182;50.788;7.318;2023-02-02T08:03:26;14.10;;;5.60;;
43124;SDS011;49182;50.788;7.318;2023-02-02T08:05:53;12.80;;;5.78;;
43124;SDS011;49182;50.788;7.318;2023-02-02T08:08:19;18.00;;;5.90;;
43124;SDS011;49182;50.788;7.318;2023-02-02T08:10:48;15.80;;;5.57;;
43124;SDS011;49182;50.788;7.318;2023-02-02T08:13:14;14.85;;;5.22;;
43124;SDS011;49182;50.788;7.318;2023-02-02T08:15:41;19.92;;;5.63;;
43124;SDS011;49182;50.788;7.318;2023-02-02T08:18:08;11.05;;;5.18;;
43124;SDS011;49182;50.788;7.318;2023-02-02T08:20:34;14.68;;;6.13;;
43124;SDS011;49182;50.788;7.318;2023-02-02T08:23:01;13.80;;;5.97;;
43124;SDS011;49182;50.788;7.318;2023-02-02T08:25:28;19.38;;;5.40;;
43124;SDS011;49182;50.788;7.318;2023-02-02T08:27:56;21.52;;;6.22;;
43124;SDS011;49182;50.788;7.318;2023-02-02T08:30:22;16.20;;;5.82;;
43124;SDS011;49182;50.788;7.318;2023-02-02T08:32:50;15.38;;;6.80;;
43124;SDS011;49182;50.788;7.318;2023-02-02T08:35:16;20.95;;;6.68;;
43124;SDS011;49182;50.788;7.318;2023-02-02T08:37:43;16.10;;;5.72;;
43124;SDS011;49182;50.788;7.318;2023-02-02T08:40:12;16.35;;;5.80;;
43124;SDS011;49182;50.788;7.318;2023-02-02T08:42:39;13.80;;;6.43;;
43124;SDS011;49182;50.788;7.318;2023-02-02T08:45:07;13.73;;;5.63;;
43124;SDS011;49182;50.788;7.318;2023-02-02T08:47:54;20.83;;;6.38;;
43124;SDS011;49182;50.788;7.318;2023-02-02T08:50:36;15.40;;;6.05;;
43124;SDS011;49182;50.788;7.318;2023-02-02T08:53:03;17.60;;;6.00;;
43124;SDS011;49182;50.788;7.318;2023-02-02T08:55:30;20.48;;;7.05;;
43124;SDS011;49182;50.788;7.318;2023-02-02T08:57:56;20.95;;;7.75;;
43124;SDS011;49182;50.788;7.318;2023-02-02T09:00:24;15.23;;;5.45;;
43124;SDS011;49182;50.788;7.318;2023-02-02T09:02:50;18.55;;;6.20;;
43124;SDS011;49182;50.788;7.318;2023-02-02T09:05:17;15.27;;;5.60;;
43124;SDS011;49182;50.788;7.318;2023-02-02T09:07:44;19.42;;;7.53;;
43124;SDS011;49182;50.788;7.318;2023-02-02T09:10:11;17.08;;;7.18;;
43124;SDS011;49182;50.788;7.318;2023-02-02T09:12:37;15.43;;;5.68;;
43124;SDS011;49182;50.788;7.318;2023-02-02T09:15:04;21.58;;;6.85;;
43124;SDS011;49182;50.788;7.318;2023-02-02T09:17:33;15.77;;;5.70;;
43124;SDS011;49182;50.788;7.318;2023-02-02T09:19:59;17.90;;;6.63;;
43124;SDS011;49182;50.788;7.318;2023-02-02T09:22:26;15.85;;;6.32;;
43124;SDS011;49182;50.788;7.318;2023-02-02T09:24:54;22.50;;;6.63;;
43124;SDS011;49182;50.788;7.318;2023-02-02T09:27:20;15.43;;;6.25;;
43124;SDS011;49182;50.788;7.318;2023-02-02T09:29:47;19.92;;;7.35;;
43124;SDS011;49182;50.788;7.318;2023-02-02T09:32:14;15.43;;;6.38;;
43124;SDS011;49182;50.788;7.318;2023-02-02T09:34:42;25.42;;;6.57;;
43124;SDS011;49182;50.788;7.318;2023-02-02T09:37:08;18.55;;;7.00;;
43124;SDS011;49182;50.788;7.318;2023-02-02T09:39:35;15.30;;;5.80;;
43124;SDS011;49182;50.788;7.318;2023-02-02T09:42:08;15.68;;;6.70;;
43124;SDS011;49182;50.788;7.318;2023-02-02T09:44:51;18.23;;;6.75;;
43124;SDS011;49182;50.788;7.318;2023-02-02T09:47:24;16.85;;;6.45;;
43124;SDS011;49182;50.788;7.318;2023-02-02T09:49:59;15.38;;;6.18;;
43124;SDS011;49182;50.788;7.318;2023-02-02T09:52:32;16.73;;;7.15;;
43124;SDS011;49182;50.788;7.318;2023-02-02T09:55:08;14.02;;;6.13;;
43124;SDS011;49182;50.788;7.318;2023-02-02T09:57:40;14.00;;;6.75;;
43124;SDS011;49182;50.788;7.318;2023-02-02T10:00:15;14.57;;;6.65;;
43124;SDS011;49182;50.788;7.318;2023-02-02T10:02:49;18.85;;;6.43;;
43124;SDS011;49182;50.788;7.318;2023-02-02T10:05:25;17.98;;;7.13;;
43124;SDS011;49182;50.788;7.318;2023-02-02T10:07:58;18.50;;;6.68;;
43124;SDS011;49182;50.788;7.318;2023-02-02T10:10:28;15.43;;;6.07;;
43124;SDS011;49182;50.788;7.318;2023-02-02T10:12:59;16.13;;;7.32;;
43124;SDS011;49182;50.788;7.318;2023-02-02T10:15:32;16.25;;;6.47;;
43124;SDS011;49182;50.788;7.318;2023-02-02T10:18:07;13.88;;;5.72;;
43124;SDS011;49182;50.788;7.318;2023-02-02T10:20:42;13.32;;;5.57;;
43124;SDS011;49182;50.788;7.318;2023-02-02T10:23:14;13.43;;;6.35;;
43124;SDS011;49182;50.788;7.318;2023-02-02T10:25:49;11.18;;;5.57;;
43124;SDS011;49182;50.788;7.318;2023-02-02T10:28:24;14.20;;;6.35;;
43124;SDS011;49182;50.788;7.318;2023-02-02T10:31:03;19.65;;;6.43;;
43124;SDS011;49182;50.788;7.318;2023-02-02T10:33:41;12.38;;;5.40;;
43124;SDS011;49182;50.788;7.318;2023-02-02T10:36:16;12.38;;;5.50;;
43124;SDS011;49182;50.788;7.318;2023-02-02T10:38:55;13.50;;;5.28;;
43124;SDS011;49182;50.788;7.318;2023-02-02T10:41:30;11.93;;;4.78;;
43124;SDS011;49182;50.788;7.318;2023-02-02T10:44:06;12.13;;;5.00;;
43124;SDS011;49182;50.788;7.318;2023-02-02T10:46:39;10.75;;;4.50;;
43124;SDS011;49182;50.788;7.318;2023-02-02T10:49:13;11.82;;;4.97;;
43124;SDS011;49182;50.788;7.318;2023-02-02T10:51:47;12.90;;;5.00;;
43124;SDS011;49182;50.788;7.318;2023-02-02T10:54:27;11.93;;;4.38;;
43124;SDS011;49182;50.788;7.318;2023-02-02T10:57:16;16.65;;;5.88;;
43124;SDS011;49182;50.788;7.318;2023-02-02T10:59:51;15.90;;;5.03;;
43124;SDS011;49182;50.788;7.318;2023-02-02T11:02:25;19.20;;;5.80;;
43124;SDS011;49182;50.788;7.318;2023-02-02T11:04:52;13.73;;;5.57;;
43124;SDS011;49182;50.788;7.318;2023-02-02T11:07:20;14.55;;;4.80;;
43124;SDS011;49182;50.788;7.318;2023-02-02T11:09:47;13.05;;;5.20;;
43124;SDS011;49182;50.788;7.318;2023-02-02T11:12:15;11.63;;;4.80;;
43124;SDS011;49182;50.788;7.318;2023-02-02T11:14:48;13.02;;;5.47;;
43124;SDS011;49182;50.788;7.318;2023-02-02T11:17:18;13.63;;;5.20;;
43124;SDS011;49182;50.788;7.318;2023-02-02T11:19:46;11.32;;;4.88;;
43124;SDS011;49182;50.788;7.318;2023-02-02T11:22:25;13.38;;;5.30;;
43124;SDS011;49182;50.788;7.318;2023-02-02T11:24:55;12.67;;;5.17;;
43124;SDS011;49182;50.788;7.318;2023-02-02T11:27:25;9.98;;;4.82;;
43124;SDS011;49182;50.788;7.318;2023-02-02T11:29:54;14.80;;;6.38;;
43124;SDS011;49182;50.788;7.318;2023-02-02T11:32:24;12.23;;;4.65;;
43124;SDS011;49182;50.788;7.318;2023-02-02T11:35:03;10.88;;;5.85;;
43124;SDS011;49182;50.788;7.318;2023-02-02T11:37:52;17.52;;;5.78;;
43124;SDS011;49182;50.788;7.318;2023-02-02T11:40:22;15.60;;;6.75;;
43124;SDS011;49182;50.788;7.318;2023-02-02T11:42:54;14.18;;;5.28;;
43124;SDS011;49182;50.788;7.318;2023-02-02T11:45:24;12.02;;;5.40;;
43124;SDS011;49182;50.788;7.318;2023-02-02T11:47:59;16.63;;;5.68;;
43124;SDS011;49182;50.788;7.318;2023-02-02T11:50:27;11.38;;;4.72;;
43124;SDS011;49182;50.788;7.318;2023-02-02T11:52:55;12.98;;;4.90;;
43124;SDS011;49182;50.788;7.318;2023-02-02T11:55:24;20.00;;;6.25;;
43124;SDS011;49182;50.788;7.318;2023-02-02T11:58:09;13.98;;;5.15;;
43124;SDS011;49182;50.788;7.318;2023-02-02T12:00:46;12.25;;;5.45;;
43124;SDS011;49182;50.788;7.318;2023-02-02T12:03:21;16.58;;;5.78;;
43124;SDS011;49182;50.788;7.318;2023-02-02T12:05:50;13.73;;;5.50;;
43124;SDS011;49182;50.788;7.318;2023-02-02T12:08:18;12.20;;;5.30;;
43124;SDS011;49182;50.788;7.318;2023-02-02T12:10:46;13.90;;;5.18;;
43124;SDS011;49182;50.788;7.318;2023-02-02T12:13:23;12.45;;;5.55;;
43124;SDS011;49182;50.788;7.318;2023-02-02T12:16:05;18.17;;;5.22;;
43124;SDS011;49182;50.788;7.318;2023-02-02T12:18:44;10.32;;;5.30;;
43124;SDS011;49182;50.788;7.318;2023-02-02T12:21:25;13.95;;;5.70;;
43124;SDS011;49182;50.788;7.318;2023-02-02T12:24:06;13.10;;;6.25;;
43124;SDS011;49182;50.788;7.318;2023-02-02T12:26:52;10.88;;;5.07;;
43124;SDS011;49182;50.788;7.318;2023-02-02T12:29:30;14.40;;;6.50;;
43124;SDS011;49182;50.788;7.318;2023-02-02T12:32:12;14.07;;;5.47;;
43124;SDS011;49182;50.788;7.318;2023-02-02T12:34:54;13.00;;;5.25;;
43124;SDS011;49182;50.788;7.318;2023-02-02T12:37:31;13.38;;;6.05;;
43124;SDS011;49182;50.788;7.318;2023-02-02T12:40:12;9.93;;;4.70;;
43124;SDS011;49182;50.788;7.318;2023-02-02T12:42:56;10.85;;;5.65;;
43124;SDS011;49182;50.788;7.318;2023-02-02T12:45:37;12.95;;;5.22;;
43124;SDS011;49182;50.788;7.318;2023-02-02T12:48:15;12.23;;;5.00;;
43124;SDS011;49182;50.788;7.318;2023-02-02T12:50:54;10.50;;;4.72;;
43124;SDS011;49182;50.788;7.318;2023-02-02T12:53:42;15.60;;;5.90;;
43124;SDS011;49182;50.788;7.318;2023-02-02T12:56:46;8.85;;;4.78;;
43124;SDS011;49182;50.788;7.318;2023-02-02T12:59:22;11.00;;;4.80;;
43124;SDS011;49182;50.788;7.318;2023-02-02T13:02:02;14.07;;;5.40;;
43124;SDS011;49182;50.788;7.318;2023-02-02T13:04:48;14.90;;;4.88;;
43124;SDS011;49182;50.788;7.318;2023-02-02T13:07:27;13.52;;;4.60;;
43124;SDS011;49182;50.788;7.318;2023-02-02T13:10:09;10.07;;;5.30;;
43124;SDS011;49182;50.788;7.318;2023-02-02T13:12:41;13.65;;;5.70;;
43124;SDS011;49182;50.788;7.318;2023-02-02T13:17:40;12.85;;;5.32;;
43124;SDS011;49182;50.788;7.318;2023-02-02T13:20:15;12.25;;;4.50;;
43124;SDS011;49182;50.788;7.318;2023-02-02T13:22:48;11.57;;;4.57;;
43124;SDS011;49182;50.788;7.318;2023-02-02T13:25:21;13.57;;;4.93;;
43124;SDS011;49182;50.788;7.318;2023-02-02T13:30:23;9.70;;;4.40;;
43124;SDS011;49182;50.788;7.318;2023-02-02T13:32:53;17.27;;;5.28;;
43124;SDS011;49182;50.788;7.318;2023-02-02T13:35:24;11.57;;;4.20;;
43124;SDS011;49182;50.788;7.318;2023-02-02T13:38:00;11.60;;;5.10;;
43124;SDS011;49182;50.788;7.318;2023-02-02T13:40:31;15.35;;;5.45;;
43124;SDS011;49182;50.788;7.318;2023-02-02T13:43:04;16.80;;;6.38;;
43124;SDS011;49182;50.788;7.318;2023-02-02T13:45:46;12.35;;;5.07;;
43124;SDS011;49182;50.788;7.318;2023-02-02T13:48:30;12.02;;;4.55;;
43124;SDS011;49182;50.788;7.318;2023-02-02T13:51:11;13.48;;;4.90;;
43124;SDS011;49182;50.788;7.318;2023-02-02T13:54:03;9.50;;;4.50;;
43124;SDS011;49182;50.788;7.318;2023-02-02T13:56:46;8.68;;;4.10;;
43124;SDS011;49182;50.788;7.318;2023-02-02T13:59:37;9.75;;;4.60;;
43124;SDS011;49182;50.788;7.318;2023-02-02T14:02:16;9.68;;;4.05;;
43124;SDS011;49182;50.788;7.318;2023-02-02T14:04:50;11.23;;;4.80;;
43124;SDS011;49182;50.788;7.318;2023-02-02T14:07:24;15.35;;;4.35;;
43124;SDS011;49182;50.788;7.318;2023-02-02T14:09:53;11.18;;;3.97;;
43124;SDS011;49182;50.788;7.318;2023-02-02T14:12:29;10.23;;;3.97;;
43124;SDS011;49182;50.788;7.318;2023-02-02T14:14:59;13.88;;;4.72;;
43124;SDS011;49182;50.788;7.318;2023-02-02T14:32:26;11.30;;;3.67;;
43124;SDS011;49182;50.788;7.318;2023-02-02T14:34:57;8.20;;;3.10;;
43124;SDS011;49182;50.788;7.318;2023-02-02T14:37:30;12.13;;;3.53;;
43124;SDS011;49182;50.788;7.318;2023-02-02T14:40:16;9.63;;;3.70;;
43124;SDS011;49182;50.788;7.318;2023-02-02T14:42:55;8.35;;;3.30;;
43124;SDS011;49182;50.788;7.318;2023-02-02T14:45:31;10.88;;;3.40;;
43124;SDS011;49182;50.788;7.318;2023-02-02T14:48:00;7.72;;;3.50;;
43124;SDS011;49182;50.788;7.318;2023-02-02T14:50:40;11.60;;;4.60;;
43124;SDS011;49182;50.788;7.318;2023-02-02T14:53:16;9.77;;;2.97;;
43124;SDS011;49182;50.788;7.318;2023-02-02T14:55:52;8.90;;;3.53;;
43124;SDS011;49182;50.788;7.318;2023-02-02T14:58:22;10.82;;;3.50;;
43124;SDS011;49182;50.788;7.318;2023-02-02T15:00:54;8.65;;;2.72;;
43124;SDS011;49182;50.788;7.318;2023-02-02T15:06:27;9.95;;;3.97;;
43124;SDS011;49182;50.788;7.318;2023-02-02T15:14:51;10.30;;;2.80;;
43124;SDS011;49182;50.788;7.318;2023-02-02T15:17:25;9.77;;;3.00;;
43124;SDS011;49182;50.788;7.318;2023-02-02T15:20:04;8.52;;;2.80;;
43124;SDS011;49182;50.788;7.318;2023-02-02T15:22:39;10.43;;;2.75;;
43124;SDS011;49182;50.788;7.318;2023-02-02T15:25:11;9.93;;;3.25;;
43124;SDS011;49182;50.788;7.318;2023-02-02T15:27:45;6.60;;;2.70;;
43124;SDS011;49182;50.788;7.318;2023-02-02T15:30:22;8.75;;;3.25;;
43124;SDS011;49182;50.788;7.318;2023-02-02T15:32:51;11.93;;;2.45;;